Terminal Aerodrome Forecast
Issued by NWS Sioux Falls, SD

Home | Current Version | Previous Version | Text Only | Print | Product List | Glossary On
Versions: 1 2 3 4 5 6 7 8 9 10 11 12 13 14
000
FTUS43 KFSD 271100
TAFHON
TAF
KHON 271121Z 2712/2812 30010KT P6SM SKC
     FM271400 33017G24KT P6SM SCT025
     FM272000 34015G21KT P6SM SCT040
     FM280130 36008KT P6SM FEW040
     FM280500 34003KT P6SM SCT050=

USA.gov is the U.S. government's official web portal to all federal, state and local government web resources and services.